Main page
METAR-TAF:

METAR-TAF

Airports :

Easterwood Airport

College Station, Texas, United States

latitude: 30-34-56N, longitude: 096-21-42W, elevation: 318 ft

Current weather observation

The report was made 58 minutes ago, at 00:53 UTC
Wind 18 mph from the North/Northwest with gusts up to 28 mph
Temperature 45°F
Humidity 49%
Pressure 30.23 in. Hg
Visibility: 10 miles
Clear sky

METAR: KCLL 200053Z 34016G24KT 10SM CLR 07/M03 A3023 RMK AO2 PK WND 34027/0037 SLP237 T00671028

Time: 19:51 (01:51 UTC)

Forecast

The report was made 2 hours and 21 minutes ago, at 23:30 UTC
Forecast valid from 20 at 00 UTC to 20 at 24 UTC
Wind 16 mph from the North/Northwest with gusts up to 28 mph
Visibility: 6 miles
Clear sky
From 20 at 0400 UTC
Wind 12 mph from the North/Northwest
Visibility: 6 miles
Clear sky
From 20 at 2000 UTC
Wind 3 mph from variable directions
Visibility: 6 miles
Scattered clouds at a height of 25000 ft

TAF: KCLL 192330Z 2000/2024 33014G24KT P6SM SKC FM200400 34010KT P6SM SKC FM202000 VRB03KT P6SM SCT250

Weather observations and forecasts of more than 4000 airports (METAR and TAF reports).

The available stations are represented by yellow and red dots on the map.

Hover mouse over dot to see the name of the station.

Then click to see weather observations and forecasts.

To change the map : click on the green buttons with a black cross to zoom in, on the green button with a dash to zoom out, or on the green arrows for adjacent maps.


METAR-TAF: